sensor_id;sensor_type;location;lat;lon;timestamp;P1;durP1;ratioP1;P2;durP2;ratioP2
4672;SDS011;61885;53.560;9.940;2022-11-20T00:01:43;2.00;;;1.90;;
4672;SDS011;61885;53.560;9.940;2022-11-20T00:04:14;1.10;;;1.00;;
4672;SDS011;61885;53.560;9.940;2022-11-20T00:06:45;2.70;;;1.10;;
4672;SDS011;61885;53.560;9.940;2022-11-20T00:09:17;4.50;;;2.00;;
4672;SDS011;61885;53.560;9.940;2022-11-20T00:11:49;1.40;;;1.30;;
4672;SDS011;61885;53.560;9.940;2022-11-20T00:14:20;1.10;;;1.00;;
4672;SDS011;61885;53.560;9.940;2022-11-20T00:16:56;4.70;;;2.00;;
4672;SDS011;61885;53.560;9.940;2022-11-20T00:19:26;1.40;;;1.30;;
4672;SDS011;61885;53.560;9.940;2022-11-20T00:21:55;1.43;;;1.33;;
4672;SDS011;61885;53.560;9.940;2022-11-20T00:24:26;1.87;;;1.50;;
4672;SDS011;61885;53.560;9.940;2022-11-20T00:26:56;2.07;;;1.27;;
4672;SDS011;61885;53.560;9.940;2022-11-20T00:29:26;2.23;;;1.77;;
4672;SDS011;61885;53.560;9.940;2022-11-20T00:31:59;1.90;;;1.40;;
4672;SDS011;61885;53.560;9.940;2022-11-20T00:34:30;1.63;;;1.30;;
4672;SDS011;61885;53.560;9.940;2022-11-20T00:36:59;1.33;;;1.23;;
4672;SDS011;61885;53.560;9.940;2022-11-20T00:39:29;2.17;;;1.50;;
4672;SDS011;61885;53.560;9.940;2022-11-20T00:42:00;2.00;;;1.47;;
4672;SDS011;61885;53.560;9.940;2022-11-20T00:44:30;2.93;;;1.50;;
4672;SDS011;61885;53.560;9.940;2022-11-20T00:47:05;2.23;;;1.30;;
4672;SDS011;61885;53.560;9.940;2022-11-20T00:49:37;2.87;;;1.80;;
4672;SDS011;61885;53.560;9.940;2022-11-20T00:52:07;2.47;;;1.60;;
4672;SDS011;61885;53.560;9.940;2022-11-20T00:54:37;4.10;;;1.90;;
4672;SDS011;61885;53.560;9.940;2022-11-20T00:57:07;1.70;;;1.60;;
4672;SDS011;61885;53.560;9.940;2022-11-20T00:59:37;1.90;;;1.63;;
4672;SDS011;61885;53.560;9.940;2022-11-20T01:02:11;2.43;;;1.73;;
4672;SDS011;61885;53.560;9.940;2022-11-20T01:04:42;1.70;;;1.47;;
4672;SDS011;61885;53.560;9.940;2022-11-20T01:07:12;1.50;;;1.40;;
4672;SDS011;61885;53.560;9.940;2022-11-20T01:09:43;1.60;;;1.50;;
4672;SDS011;61885;53.560;9.940;2022-11-20T01:12:14;2.80;;;1.80;;
4672;SDS011;61885;53.560;9.940;2022-11-20T01:14:44;1.77;;;1.67;;
4672;SDS011;61885;53.560;9.940;2022-11-20T01:17:17;3.00;;;2.07;;
4672;SDS011;61885;53.560;9.940;2022-11-20T01:19:53;3.30;;;2.03;;
4672;SDS011;61885;53.560;9.940;2022-11-20T01:22:24;2.80;;;1.50;;
4672;SDS011;61885;53.560;9.940;2022-11-20T01:24:54;1.83;;;1.70;;
4672;SDS011;61885;53.560;9.940;2022-11-20T01:27:23;2.23;;;1.97;;
4672;SDS011;61885;53.560;9.940;2022-11-20T01:29:53;2.00;;;1.70;;
4672;SDS011;61885;53.560;9.940;2022-11-20T01:32:29;2.53;;;1.87;;
4672;SDS011;61885;53.560;9.940;2022-11-20T01:35:04;1.50;;;1.40;;
4672;SDS011;61885;53.560;9.940;2022-11-20T01:37:41;1.70;;;1.60;;
4672;SDS011;61885;53.560;9.940;2022-11-20T01:40:14;1.37;;;1.27;;
4672;SDS011;61885;53.560;9.940;2022-11-20T01:42:44;3.43;;;1.80;;
4672;SDS011;61885;53.560;9.940;2022-11-20T01:45:42;1.70;;;1.60;;
4672;SDS011;61885;53.560;9.940;2022-11-20T01:48:33;1.70;;;1.37;;
4672;SDS011;61885;53.560;9.940;2022-11-20T01:51:10;2.17;;;1.30;;
4672;SDS011;61885;53.560;9.940;2022-11-20T01:53:44;4.17;;;1.60;;
4672;SDS011;61885;53.560;9.940;2022-11-20T01:56:15;1.33;;;1.23;;
4672;SDS011;61885;53.560;9.940;2022-11-20T01:58:47;1.77;;;1.63;;
4672;SDS011;61885;53.560;9.940;2022-11-20T02:01:20;2.73;;;1.60;;
4672;SDS011;61885;53.560;9.940;2022-11-20T02:03:55;1.87;;;1.67;;
4672;SDS011;61885;53.560;9.940;2022-11-20T02:06:27;3.77;;;1.87;;
4672;SDS011;61885;53.560;9.940;2022-11-20T02:09:02;1.57;;;1.47;;
4672;SDS011;61885;53.560;9.940;2022-11-20T02:11:37;2.40;;;2.20;;
4672;SDS011;61885;53.560;9.940;2022-11-20T02:14:07;1.30;;;1.20;;
4672;SDS011;61885;53.560;9.940;2022-11-20T02:16:36;2.13;;;2.00;;
4672;SDS011;61885;53.560;9.940;2022-11-20T02:19:16;2.17;;;2.03;;
4672;SDS011;61885;53.560;9.940;2022-11-20T02:21:54;2.43;;;2.30;;
4672;SDS011;61885;53.560;9.940;2022-11-20T02:24:35;17.53;;;2.50;;
4672;SDS011;61885;53.560;9.940;2022-11-20T02:27:06;2.30;;;1.60;;
4672;SDS011;61885;53.560;9.940;2022-11-20T02:29:39;2.83;;;1.90;;
4672;SDS011;61885;53.560;9.940;2022-11-20T02:32:18;1.60;;;1.50;;
4672;SDS011;61885;53.560;9.940;2022-11-20T02:34:51;1.73;;;1.63;;
4672;SDS011;61885;53.560;9.940;2022-11-20T02:37:21;1.90;;;1.80;;
4672;SDS011;61885;53.560;9.940;2022-11-20T02:39:53;1.37;;;1.20;;
4672;SDS011;61885;53.560;9.940;2022-11-20T02:42:23;2.07;;;1.77;;
4672;SDS011;61885;53.560;9.940;2022-11-20T02:44:54;3.70;;;2.00;;
4672;SDS011;61885;53.560;9.940;2022-11-20T02:47:25;1.83;;;1.70;;
4672;SDS011;61885;53.560;9.940;2022-11-20T02:49:55;1.80;;;1.60;;
4672;SDS011;61885;53.560;9.940;2022-11-20T02:52:25;3.33;;;1.67;;
4672;SDS011;61885;53.560;9.940;2022-11-20T02:54:58;2.50;;;1.73;;
4672;SDS011;61885;53.560;9.940;2022-11-20T02:57:28;1.90;;;1.80;;
4672;SDS011;61885;53.560;9.940;2022-11-20T02:59:58;7.57;;;2.43;;
4672;SDS011;61885;53.560;9.940;2022-11-20T03:02:29;4.00;;;2.17;;
4672;SDS011;61885;53.560;9.940;2022-11-20T03:04:59;1.63;;;1.53;;
4672;SDS011;61885;53.560;9.940;2022-11-20T03:07:32;2.20;;;1.77;;
4672;SDS011;61885;53.560;9.940;2022-11-20T03:10:05;1.97;;;1.83;;
4672;SDS011;61885;53.560;9.940;2022-11-20T03:12:37;3.23;;;2.30;;
4672;SDS011;61885;53.560;9.940;2022-11-20T03:15:08;3.33;;;2.40;;
4672;SDS011;61885;53.560;9.940;2022-11-20T03:17:39;2.40;;;1.63;;
4672;SDS011;61885;53.560;9.940;2022-11-20T03:20:09;1.40;;;1.03;;
4672;SDS011;61885;53.560;9.940;2022-11-20T03:22:40;2.50;;;2.37;;
4672;SDS011;61885;53.560;9.940;2022-11-20T03:25:12;2.50;;;1.70;;
4672;SDS011;61885;53.560;9.940;2022-11-20T03:27:42;2.53;;;2.07;;
4672;SDS011;61885;53.560;9.940;2022-11-20T03:30:12;5.07;;;2.27;;
4672;SDS011;61885;53.560;9.940;2022-11-20T03:32:43;4.97;;;2.30;;
4672;SDS011;61885;53.560;9.940;2022-11-20T03:35:13;1.67;;;1.57;;
4672;SDS011;61885;53.560;9.940;2022-11-20T03:37:44;2.23;;;1.70;;
4672;SDS011;61885;53.560;9.940;2022-11-20T03:40:18;2.50;;;2.10;;
4672;SDS011;61885;53.560;9.940;2022-11-20T03:42:48;4.00;;;2.40;;
4672;SDS011;61885;53.560;9.940;2022-11-20T03:45:18;2.20;;;1.83;;
4672;SDS011;61885;53.560;9.940;2022-11-20T03:47:50;1.80;;;1.70;;
4672;SDS011;61885;53.560;9.940;2022-11-20T03:50:19;1.40;;;1.30;;
4672;SDS011;61885;53.560;9.940;2022-11-20T03:52:51;1.87;;;1.77;;
4672;SDS011;61885;53.560;9.940;2022-11-20T03:55:23;2.37;;;2.17;;
4672;SDS011;61885;53.560;9.940;2022-11-20T03:57:53;2.67;;;1.40;;
4672;SDS011;61885;53.560;9.940;2022-11-20T04:00:24;1.77;;;1.67;;
4672;SDS011;61885;53.560;9.940;2022-11-20T04:02:57;2.10;;;1.63;;
4672;SDS011;61885;53.560;9.940;2022-11-20T04:05:27;2.03;;;1.40;;
4672;SDS011;61885;53.560;9.940;2022-11-20T04:07:57;1.77;;;1.30;;
4672;SDS011;61885;53.560;9.940;2022-11-20T04:10:30;1.73;;;1.60;;
4672;SDS011;61885;53.560;9.940;2022-11-20T04:13:00;2.47;;;1.93;;
4672;SDS011;61885;53.560;9.940;2022-11-20T04:15:30;2.07;;;1.87;;
4672;SDS011;61885;53.560;9.940;2022-11-20T04:18:00;2.60;;;1.53;;
4672;SDS011;61885;53.560;9.940;2022-11-20T04:20:32;2.90;;;1.77;;
4672;SDS011;61885;53.560;9.940;2022-11-20T04:23:02;1.50;;;1.40;;
4672;SDS011;61885;53.560;9.940;2022-11-20T04:25:38;2.63;;;1.87;;
4672;SDS011;61885;53.560;9.940;2022-11-20T04:28:08;1.47;;;1.30;;
4672;SDS011;61885;53.560;9.940;2022-11-20T04:30:40;1.87;;;1.77;;
4672;SDS011;61885;53.560;9.940;2022-11-20T04:33:11;1.80;;;1.70;;
4672;SDS011;61885;53.560;9.940;2022-11-20T04:35:42;5.27;;;2.53;;
4672;SDS011;61885;53.560;9.940;2022-11-20T04:38:14;2.10;;;2.00;;
4672;SDS011;61885;53.560;9.940;2022-11-20T04:40:47;2.77;;;1.90;;
4672;SDS011;61885;53.560;9.940;2022-11-20T04:43:19;1.63;;;1.53;;
4672;SDS011;61885;53.560;9.940;2022-11-20T04:45:50;1.77;;;1.67;;
4672;SDS011;61885;53.560;9.940;2022-11-20T04:48:20;2.07;;;1.70;;
4672;SDS011;61885;53.560;9.940;2022-11-20T04:50:50;1.57;;;1.47;;
4672;SDS011;61885;53.560;9.940;2022-11-20T04:53:24;1.67;;;1.57;;
4672;SDS011;61885;53.560;9.940;2022-11-20T04:56:01;2.20;;;2.10;;
4672;SDS011;61885;53.560;9.940;2022-11-20T04:58:34;1.93;;;1.70;;
4672;SDS011;61885;53.560;9.940;2022-11-20T05:01:04;2.13;;;2.00;;
4672;SDS011;61885;53.560;9.940;2022-11-20T05:03:36;1.97;;;1.87;;
4672;SDS011;61885;53.560;9.940;2022-11-20T05:06:06;5.40;;;1.67;;
4672;SDS011;61885;53.560;9.940;2022-11-20T05:08:37;2.30;;;1.37;;
4672;SDS011;61885;53.560;9.940;2022-11-20T05:11:10;1.97;;;1.80;;
4672;SDS011;61885;53.560;9.940;2022-11-20T05:13:42;3.87;;;1.90;;
4672;SDS011;61885;53.560;9.940;2022-11-20T05:16:12;2.50;;;1.80;;
4672;SDS011;61885;53.560;9.940;2022-11-20T05:18:43;1.93;;;1.67;;
4672;SDS011;61885;53.560;9.940;2022-11-20T05:21:16;1.73;;;1.57;;
4672;SDS011;61885;53.560;9.940;2022-11-20T05:23:47;3.07;;;2.13;;
4672;SDS011;61885;53.560;9.940;2022-11-20T05:26:21;2.17;;;1.97;;
4672;SDS011;61885;53.560;9.940;2022-11-20T05:28:51;2.40;;;2.17;;
4672;SDS011;61885;53.560;9.940;2022-11-20T05:31:21;2.83;;;2.00;;
4672;SDS011;61885;53.560;9.940;2022-11-20T05:33:55;1.87;;;1.73;;
4672;SDS011;61885;53.560;9.940;2022-11-20T05:36:26;2.30;;;2.13;;
4672;SDS011;61885;53.560;9.940;2022-11-20T05:38:56;3.60;;;2.23;;
4672;SDS011;61885;53.560;9.940;2022-11-20T05:41:30;1.60;;;1.50;;
4672;SDS011;61885;53.560;9.940;2022-11-20T05:44:02;3.87;;;3.00;;
4672;SDS011;61885;53.560;9.940;2022-11-20T05:46:32;7.33;;;3.90;;
4672;SDS011;61885;53.560;9.940;2022-11-20T05:49:02;3.17;;;2.67;;
4672;SDS011;61885;53.560;9.940;2022-11-20T05:51:33;4.03;;;3.47;;
4672;SDS011;61885;53.560;9.940;2022-11-20T05:54:04;3.03;;;2.30;;
4672;SDS011;61885;53.560;9.940;2022-11-20T05:56:36;2.90;;;2.40;;
4672;SDS011;61885;53.560;9.940;2022-11-20T05:59:08;4.63;;;2.47;;
4672;SDS011;61885;53.560;9.940;2022-11-20T06:01:39;2.63;;;2.40;;
4672;SDS011;61885;53.560;9.940;2022-11-20T06:04:12;2.97;;;2.70;;
4672;SDS011;61885;53.560;9.940;2022-11-20T06:06:42;3.33;;;2.27;;
4672;SDS011;61885;53.560;9.940;2022-11-20T06:09:12;2.83;;;1.60;;
4672;SDS011;61885;53.560;9.940;2022-11-20T06:11:46;2.60;;;2.07;;
4672;SDS011;61885;53.560;9.940;2022-11-20T06:14:16;4.73;;;2.67;;
4672;SDS011;61885;53.560;9.940;2022-11-20T06:16:47;3.00;;;2.30;;
4672;SDS011;61885;53.560;9.940;2022-11-20T06:19:16;4.13;;;2.47;;
4672;SDS011;61885;53.560;9.940;2022-11-20T06:21:47;4.20;;;2.50;;
4672;SDS011;61885;53.560;9.940;2022-11-20T06:24:18;5.47;;;3.60;;
4672;SDS011;61885;53.560;9.940;2022-11-20T06:26:53;2.67;;;2.57;;
4672;SDS011;61885;53.560;9.940;2022-11-20T06:29:23;2.53;;;2.13;;
4672;SDS011;61885;53.560;9.940;2022-11-20T06:31:56;3.63;;;1.90;;
4672;SDS011;61885;53.560;9.940;2022-11-20T06:34:26;4.50;;;2.53;;
4672;SDS011;61885;53.560;9.940;2022-11-20T06:36:55;8.00;;;1.83;;
4672;SDS011;61885;53.560;9.940;2022-11-20T06:39:25;2.90;;;2.70;;
4672;SDS011;61885;53.560;9.940;2022-11-20T06:41:59;4.77;;;2.90;;
4672;SDS011;61885;53.560;9.940;2022-11-20T06:44:30;2.70;;;2.50;;
4672;SDS011;61885;53.560;9.940;2022-11-20T06:47:00;3.77;;;2.57;;
4672;SDS011;61885;53.560;9.940;2022-11-20T06:49:29;2.20;;;2.00;;
4672;SDS011;61885;53.560;9.940;2022-11-20T06:52:00;2.63;;;1.90;;
4672;SDS011;61885;53.560;9.940;2022-11-20T06:54:30;1.60;;;1.50;;
4672;SDS011;61885;53.560;9.940;2022-11-20T06:57:02;3.37;;;2.57;;
4672;SDS011;61885;53.560;9.940;2022-11-20T06:59:32;2.23;;;1.90;;
4672;SDS011;61885;53.560;9.940;2022-11-20T07:02:01;2.73;;;2.07;;
4672;SDS011;61885;53.560;9.940;2022-11-20T07:04:31;2.13;;;1.80;;
4672;SDS011;61885;53.560;9.940;2022-11-20T07:07:01;2.33;;;2.20;;
4672;SDS011;61885;53.560;9.940;2022-11-20T07:09:31;3.00;;;2.20;;
4672;SDS011;61885;53.560;9.940;2022-11-20T07:12:03;1.77;;;1.67;;
4672;SDS011;61885;53.560;9.940;2022-11-20T07:14:34;1.93;;;1.70;;
4672;SDS011;61885;53.560;9.940;2022-11-20T07:17:04;3.93;;;1.57;;
4672;SDS011;61885;53.560;9.940;2022-11-20T07:19:34;1.87;;;1.77;;
4672;SDS011;61885;53.560;9.940;2022-11-20T07:22:05;3.10;;;1.80;;
4672;SDS011;61885;53.560;9.940;2022-11-20T07:24:36;1.43;;;1.33;;
4672;SDS011;61885;53.560;9.940;2022-11-20T07:27:09;1.50;;;1.40;;
4672;SDS011;61885;53.560;9.940;2022-11-20T07:29:38;2.70;;;1.97;;
4672;SDS011;61885;53.560;9.940;2022-11-20T07:32:11;2.03;;;1.67;;
4672;SDS011;61885;53.560;9.940;2022-11-20T07:34:43;1.97;;;1.87;;
4672;SDS011;61885;53.560;9.940;2022-11-20T07:37:13;2.33;;;2.00;;
4672;SDS011;61885;53.560;9.940;2022-11-20T07:39:47;2.17;;;1.90;;
4672;SDS011;61885;53.560;9.940;2022-11-20T07:42:19;3.00;;;2.70;;
4672;SDS011;61885;53.560;9.940;2022-11-20T07:44:49;2.77;;;2.00;;
4672;SDS011;61885;53.560;9.940;2022-11-20T07:47:20;5.00;;;2.33;;
4672;SDS011;61885;53.560;9.940;2022-11-20T07:49:51;4.93;;;2.17;;
4672;SDS011;61885;53.560;9.940;2022-11-20T07:52:22;2.77;;;2.57;;
4672;SDS011;61885;53.560;9.940;2022-11-20T07:54:52;3.97;;;2.30;;
4672;SDS011;61885;53.560;9.940;2022-11-20T07:57:27;2.30;;;2.10;;
4672;SDS011;61885;53.560;9.940;2022-11-20T07:59:56;2.40;;;2.20;;
4672;SDS011;61885;53.560;9.940;2022-11-20T08:02:26;2.27;;;2.10;;
4672;SDS011;61885;53.560;9.940;2022-11-20T08:04:58;2.47;;;2.30;;
4672;SDS011;61885;53.560;9.940;2022-11-20T08:07:28;2.50;;;2.30;;
4672;SDS011;61885;53.560;9.940;2022-11-20T08:10:03;2.40;;;2.20;;
4672;SDS011;61885;53.560;9.940;2022-11-20T08:12:42;2.07;;;1.97;;
4672;SDS011;61885;53.560;9.940;2022-11-20T08:15:25;3.47;;;2.37;;
4672;SDS011;61885;53.560;9.940;2022-11-20T08:17:58;2.53;;;2.33;;
4672;SDS011;61885;53.560;9.940;2022-11-20T08:20:31;2.27;;;2.07;;
4672;SDS011;61885;53.560;9.940;2022-11-20T08:23:01;2.10;;;1.97;;
4672;SDS011;61885;53.560;9.940;2022-11-20T08:25:32;2.00;;;1.60;;
4672;SDS011;61885;53.560;9.940;2022-11-20T08:28:07;2.00;;;1.80;;
4672;SDS011;61885;53.560;9.940;2022-11-20T08:30:43;3.57;;;1.60;;
4672;SDS011;61885;53.560;9.940;2022-11-20T08:33:16;1.33;;;1.23;;
4672;SDS011;61885;53.560;9.940;2022-11-20T08:35:49;2.30;;;1.80;;
4672;SDS011;61885;53.560;9.940;2022-11-20T08:38:23;2.53;;;1.80;;
4672;SDS011;61885;53.560;9.940;2022-11-20T08:40:56;3.00;;;1.80;;
4672;SDS011;61885;53.560;9.940;2022-11-20T08:43:42;1.97;;;1.87;;
4672;SDS011;61885;53.560;9.940;2022-11-20T08:46:12;1.60;;;1.50;;
4672;SDS011;61885;53.560;9.940;2022-11-20T08:48:43;2.70;;;1.47;;
4672;SDS011;61885;53.560;9.940;2022-11-20T08:51:14;1.40;;;1.30;;
4672;SDS011;61885;53.560;9.940;2022-11-20T08:53:45;2.23;;;1.87;;
4672;SDS011;61885;53.560;9.940;2022-11-20T08:56:14;2.20;;;1.53;;
4672;SDS011;61885;53.560;9.940;2022-11-20T08:58:52;1.77;;;1.50;;
4672;SDS011;61885;53.560;9.940;2022-11-20T09:01:22;1.40;;;1.30;;
4672;SDS011;61885;53.560;9.940;2022-11-20T09:03:55;1.13;;;1.07;;
4672;SDS011;61885;53.560;9.940;2022-11-20T09:06:41;1.63;;;1.53;;
4672;SDS011;61885;53.560;9.940;2022-11-20T09:09:11;1.67;;;1.30;;
4672;SDS011;61885;53.560;9.940;2022-11-20T09:11:41;2.03;;;1.83;;
4672;SDS011;61885;53.560;9.940;2022-11-20T09:14:15;1.77;;;1.67;;
4672;SDS011;61885;53.560;9.940;2022-11-20T09:16:50;1.63;;;1.20;;
4672;SDS011;61885;53.560;9.940;2022-11-20T09:19:23;1.60;;;1.50;;
4672;SDS011;61885;53.560;9.940;2022-11-20T09:21:58;2.23;;;1.07;;
4672;SDS011;61885;53.560;9.940;2022-11-20T09:24:30;3.63;;;1.87;;
4672;SDS011;61885;53.560;9.940;2022-11-20T09:27:03;1.60;;;0.80;;
4672;SDS011;61885;53.560;9.940;2022-11-20T09:29:39;2.53;;;1.20;;
4672;SDS011;61885;53.560;9.940;2022-11-20T09:32:09;1.50;;;1.27;;
4672;SDS011;61885;53.560;9.940;2022-11-20T09:34:39;2.50;;;1.73;;
4672;SDS011;61885;53.560;9.940;2022-11-20T09:37:10;1.50;;;1.10;;
4672;SDS011;61885;53.560;9.940;2022-11-20T09:39:52;2.63;;;1.23;;
4672;SDS011;61885;53.560;9.940;2022-11-20T09:42:31;1.40;;;1.30;;
4672;SDS011;61885;53.560;9.940;2022-11-20T09:45:18;1.10;;;1.00;;
4672;SDS011;61885;53.560;9.940;2022-11-20T09:48:05;1.40;;;1.17;;
4672;SDS011;61885;53.560;9.940;2022-11-20T09:51:03;2.70;;;1.87;;
4672;SDS011;61885;53.560;9.940;2022-11-20T09:53:45;1.60;;;1.30;;
4672;SDS011;61885;53.560;9.940;2022-11-20T09:56:26;1.40;;;1.23;;
4672;SDS011;61885;53.560;9.940;2022-11-20T09:58:59;1.30;;;1.20;;
4672;SDS011;61885;53.560;9.940;2022-11-20T10:01:36;2.13;;;1.07;;
4672;SDS011;61885;53.560;9.940;2022-11-20T10:04:14;1.70;;;1.60;;
4672;SDS011;61885;53.560;9.940;2022-11-20T10:06:50;0.90;;;0.80;;
4672;SDS011;61885;53.560;9.940;2022-11-20T10:09:27;1.10;;;1.00;;
4672;SDS011;61885;53.560;9.940;2022-11-20T10:12:06;1.57;;;1.10;;
4672;SDS011;61885;53.560;9.940;2022-11-20T10:14:50;1.03;;;0.93;;
4672;SDS011;61885;53.560;9.940;2022-11-20T10:17:41;2.07;;;1.17;;
4672;SDS011;61885;53.560;9.940;2022-11-20T10:20:25;1.30;;;1.20;;
4672;SDS011;61885;53.560;9.940;2022-11-20T10:23:03;1.13;;;1.03;;
4672;SDS011;61885;53.560;9.940;2022-11-20T10:25:49;2.50;;;1.33;;
4672;SDS011;61885;53.560;9.940;2022-11-20T10:28:30;1.60;;;1.50;;
4672;SDS011;61885;53.560;9.940;2022-11-20T10:31:16;2.67;;;1.33;;
4672;SDS011;61885;53.560;9.940;2022-11-20T10:33:58;1.03;;;0.93;;
4672;SDS011;61885;53.560;9.940;2022-11-20T10:36:33;1.23;;;1.10;;
4672;SDS011;61885;53.560;9.940;2022-11-20T10:39:11;1.40;;;1.03;;
4672;SDS011;61885;53.560;9.940;2022-11-20T10:41:49;2.20;;;1.10;;
4672;SDS011;61885;53.560;9.940;2022-11-20T10:44:22;1.00;;;0.90;;
4672;SDS011;61885;53.560;9.940;2022-11-20T10:47:11;2.60;;;1.43;;
4672;SDS011;61885;53.560;9.940;2022-11-20T10:49:48;1.73;;;1.17;;
4672;SDS011;61885;53.560;9.940;2022-11-20T10:52:25;1.40;;;1.30;;
4672;SDS011;61885;53.560;9.940;2022-11-20T10:55:04;1.30;;;1.17;;
4672;SDS011;61885;53.560;9.940;2022-11-20T10:57:47;3.30;;;1.80;;
4672;SDS011;61885;53.560;9.940;2022-11-20T11:00:24;1.30;;;1.20;;
4672;SDS011;61885;53.560;9.940;2022-11-20T11:02:55;4.20;;;1.77;;
4672;SDS011;61885;53.560;9.940;2022-11-20T11:05:36;1.70;;;1.60;;
4672;SDS011;61885;53.560;9.940;2022-11-20T11:08:10;1.20;;;1.10;;
4672;SDS011;61885;53.560;9.940;2022-11-20T11:10:45;1.23;;;1.13;;
4672;SDS011;61885;53.560;9.940;2022-11-20T11:13:21;1.90;;;1.70;;
4672;SDS011;61885;53.560;9.940;2022-11-20T11:15:51;1.63;;;1.50;;
4672;SDS011;61885;53.560;9.940;2022-11-20T11:18:24;1.40;;;1.30;;
4672;SDS011;61885;53.560;9.940;2022-11-20T11:20:59;1.53;;;1.20;;
4672;SDS011;61885;53.560;9.940;2022-11-20T11:23:31;1.30;;;1.10;;
4672;SDS011;61885;53.560;9.940;2022-11-20T11:26:04;1.83;;;1.50;;
4672;SDS011;61885;53.560;9.940;2022-11-20T11:28:35;1.20;;;1.10;;
4672;SDS011;61885;53.560;9.940;2022-11-20T11:31:05;1.73;;;1.40;;
4672;SDS011;61885;53.560;9.940;2022-11-20T11:33:35;3.37;;;1.87;;
4672;SDS011;61885;53.560;9.940;2022-11-20T11:36:16;1.20;;;1.10;;
4672;SDS011;61885;53.560;9.940;2022-11-20T11:38:50;1.70;;;1.40;;
4672;SDS011;61885;53.560;9.940;2022-11-20T11:41:23;1.50;;;1.40;;
4672;SDS011;61885;53.560;9.940;2022-11-20T11:44:00;1.33;;;1.23;;
4672;SDS011;61885;53.560;9.940;2022-11-20T11:46:52;6.20;;;1.80;;
4672;SDS011;61885;53.560;9.940;2022-11-20T11:49:24;5.10;;;1.67;;
4672;SDS011;61885;53.560;9.940;2022-11-20T11:52:03;1.33;;;1.13;;
4672;SDS011;61885;53.560;9.940;2022-11-20T11:54:41;1.77;;;1.23;;
4672;SDS011;61885;53.560;9.940;2022-11-20T11:57:16;1.10;;;1.00;;
4672;SDS011;61885;53.560;9.940;2022-11-20T11:59:57;1.33;;;1.23;;
4672;SDS011;61885;53.560;9.940;2022-11-20T12:02:37;1.30;;;1.20;;
4672;SDS011;61885;53.560;9.940;2022-11-20T12:05:17;1.60;;;1.50;;
4672;SDS011;61885;53.560;9.940;2022-11-20T12:07:56;1.20;;;1.10;;
4672;SDS011;61885;53.560;9.940;2022-11-20T12:10:34;1.00;;;0.80;;
4672;SDS011;61885;53.560;9.940;2022-11-20T12:13:20;1.10;;;1.00;;
4672;SDS011;61885;53.560;9.940;2022-11-20T12:15:57;0.90;;;0.63;;
4672;SDS011;61885;53.560;9.940;2022-11-20T12:18:28;0.80;;;0.73;;
4672;SDS011;61885;53.560;9.940;2022-11-20T12:21:03;1.27;;;1.10;;
4672;SDS011;61885;53.560;9.940;2022-11-20T12:23:56;1.17;;;1.00;;
4672;SDS011;61885;53.560;9.940;2022-11-20T12:26:42;1.00;;;0.90;;
4672;SDS011;61885;53.560;9.940;2022-11-20T12:29:25;1.00;;;0.90;;
4672;SDS011;61885;53.560;9.940;2022-11-20T12:35:14;1.53;;;1.43;;
4672;SDS011;61885;53.560;9.940;2022-11-20T12:38:07;1.20;;;1.10;;
4672;SDS011;61885;53.560;9.940;2022-11-20T12:40:56;1.40;;;1.30;;
4672;SDS011;61885;53.560;9.940;2022-11-20T12:43:34;1.27;;;1.17;;
4672;SDS011;61885;53.560;9.940;2022-11-20T12:46:26;1.60;;;1.23;;
4672;SDS011;61885;53.560;9.940;2022-11-20T12:49:15;1.60;;;1.50;;
4672;SDS011;61885;53.560;9.940;2022-11-20T12:51:58;1.60;;;1.50;;
4672;SDS011;61885;53.560;9.940;2022-11-20T12:57:57;2.80;;;1.40;;
4672;SDS011;61885;53.560;9.940;2022-11-20T13:00:30;0.83;;;0.83;;
4672;SDS011;61885;53.560;9.940;2022-11-20T13:06:12;2.03;;;1.50;;
4672;SDS011;61885;53.560;9.940;2022-11-20T13:08:48;1.37;;;1.27;;
4672;SDS011;61885;53.560;9.940;2022-11-20T13:11:24;1.10;;;1.00;;
4672;SDS011;61885;53.560;9.940;2022-11-20T13:14:07;0.80;;;0.70;;
4672;SDS011;61885;53.560;9.940;2022-11-20T13:16:53;1.27;;;0.90;;
4672;SDS011;61885;53.560;9.940;2022-11-20T13:19:27;0.80;;;0.60;;
4672;SDS011;61885;53.560;9.940;2022-11-20T13:21:56;0.93;;;0.70;;
4672;SDS011;61885;53.560;9.940;2022-11-20T13:24:27;1.17;;;0.90;;
4672;SDS011;61885;53.560;9.940;2022-11-20T13:26:59;0.83;;;0.73;;
4672;SDS011;61885;53.560;9.940;2022-11-20T13:29:37;1.13;;;1.00;;
4672;SDS011;61885;53.560;9.940;2022-11-20T13:32:13;2.07;;;1.00;;
4672;SDS011;61885;53.560;9.940;2022-11-20T13:34:51;3.20;;;0.80;;
4672;SDS011;61885;53.560;9.940;2022-11-20T13:37:25;0.83;;;0.70;;
4672;SDS011;61885;53.560;9.940;2022-11-20T13:42:55;2.00;;;1.30;;
4672;SDS011;61885;53.560;9.940;2022-11-20T13:45:35;1.53;;;1.10;;
4672;SDS011;61885;53.560;9.940;2022-11-20T13:48:17;1.37;;;1.23;;
4672;SDS011;61885;53.560;9.940;2022-11-20T13:50:55;1.50;;;1.40;;
4672;SDS011;61885;53.560;9.940;2022-11-20T13:56:48;1.37;;;1.27;;
4672;SDS011;61885;53.560;9.940;2022-11-20T14:02:25;0.97;;;0.83;;
4672;SDS011;61885;53.560;9.940;2022-11-20T14:04:58;1.47;;;1.00;;
4672;SDS011;61885;53.560;9.940;2022-11-20T14:07:31;1.77;;;1.30;;
4672;SDS011;61885;53.560;9.940;2022-11-20T14:10:18;1.23;;;1.13;;
4672;SDS011;61885;53.560;9.940;2022-11-20T14:12:50;0.80;;;0.80;;
4672;SDS011;61885;53.560;9.940;2022-11-20T14:15:27;1.70;;;1.27;;
4672;SDS011;61885;53.560;9.940;2022-11-20T14:18:11;1.50;;;1.30;;
4672;SDS011;61885;53.560;9.940;2022-11-20T14:20:42;2.00;;;1.50;;
4672;SDS011;61885;53.560;9.940;2022-11-20T14:23:22;1.77;;;1.23;;
4672;SDS011;61885;53.560;9.940;2022-11-20T14:25:55;1.67;;;1.10;;
4672;SDS011;61885;53.560;9.940;2022-11-20T14:28:25;1.10;;;1.00;;
4672;SDS011;61885;53.560;9.940;2022-11-20T14:30:56;1.50;;;1.37;;
4672;SDS011;61885;53.560;9.940;2022-11-20T14:33:29;1.10;;;1.00;;
4672;SDS011;61885;53.560;9.940;2022-11-20T14:36:02;1.37;;;1.27;;
4672;SDS011;61885;53.560;9.940;2022-11-20T14:38:33;1.30;;;1.20;;
4672;SDS011;61885;53.560;9.940;2022-11-20T14:41:07;1.50;;;1.17;;
4672;SDS011;61885;53.560;9.940;2022-11-20T14:43:45;2.90;;;1.13;;
4672;SDS011;61885;53.560;9.940;2022-11-20T14:46:16;1.00;;;0.90;;
4672;SDS011;61885;53.560;9.940;2022-11-20T14:48:51;2.30;;;1.57;;
4672;SDS011;61885;53.560;9.940;2022-11-20T14:51:24;1.20;;;1.03;;
4672;SDS011;61885;53.560;9.940;2022-11-20T14:54:10;1.20;;;1.10;;
4672;SDS011;61885;53.560;9.940;2022-11-20T14:56:40;1.37;;;1.27;;
4672;SDS011;61885;53.560;9.940;2022-11-20T14:59:23;0.80;;;0.70;;
4672;SDS011;61885;53.560;9.940;2022-11-20T15:01:55;1.07;;;0.90;;
4672;SDS011;61885;53.560;9.940;2022-11-20T15:04:30;1.50;;;1.40;;
4672;SDS011;61885;53.560;9.940;2022-11-20T15:07:01;2.30;;;1.83;;
4672;SDS011;61885;53.560;9.940;2022-11-20T15:09:34;1.00;;;0.60;;
4672;SDS011;61885;53.560;9.940;2022-11-20T15:12:04;1.30;;;1.20;;
4672;SDS011;61885;53.560;9.940;2022-11-20T15:14:34;1.43;;;1.10;;
4672;SDS011;61885;53.560;9.940;2022-11-20T15:17:12;1.50;;;1.40;;
4672;SDS011;61885;53.560;9.940;2022-11-20T15:19:49;1.23;;;1.13;;
4672;SDS011;61885;53.560;9.940;2022-11-20T15:22:20;1.30;;;1.20;;
4672;SDS011;61885;53.560;9.940;2022-11-20T15:24:49;3.77;;;1.87;;
4672;SDS011;61885;53.560;9.940;2022-11-20T15:27:23;1.60;;;1.50;;
4672;SDS011;61885;53.560;9.940;2022-11-20T15:29:54;1.20;;;1.10;;
4672;SDS011;61885;53.560;9.940;2022-11-20T15:32:24;1.53;;;1.43;;
4672;SDS011;61885;53.560;9.940;2022-11-20T15:34:58;5.37;;;1.63;;
4672;SDS011;61885;53.560;9.940;2022-11-20T15:37:28;2.23;;;1.40;;
4672;SDS011;61885;53.560;9.940;2022-11-20T15:39:59;1.93;;;1.47;;
4672;SDS011;61885;53.560;9.940;2022-11-20T15:42:30;3.17;;;1.37;;
4672;SDS011;61885;53.560;9.940;2022-11-20T15:45:00;1.50;;;1.40;;
4672;SDS011;61885;53.560;9.940;2022-11-20T15:47:32;1.90;;;1.77;;
4672;SDS011;61885;53.560;9.940;2022-11-20T15:50:08;1.40;;;1.30;;
4672;SDS011;61885;53.560;9.940;2022-11-20T15:52:45;1.20;;;1.10;;
4672;SDS011;61885;53.560;9.940;2022-11-20T15:55:17;1.17;;;1.07;;
4672;SDS011;61885;53.560;9.940;2022-11-20T15:57:47;1.63;;;1.53;;
4672;SDS011;61885;53.560;9.940;2022-11-20T16:00:17;1.43;;;1.33;;